Main page
METAR-TAF:

METAR-TAF

Airports :

Mécheria, Algeria

Mécheria Airport

latitude: 34-56N, longitude: 000-26W, elevation: 1149 m

Current weather observation

The report was made 47 minutes ago, at 16:00 UTC
Wind 22 kt from the South/Southwest
Temperature 39°C
Humidity 19%
Pressure 1021 hPa
Visibility: 7000 m
Few clouds at a height of 2600 ft, Cumulonimbus.
Scattered clouds at a height of 3000 ft

METAR: DAAY 221600Z 20022KT 7000 FEW026CB SCT030 39/11 Q1021 RETS

Time: 17:47 (16:47 UTC)

Forecast

The report was made 2 hours and 47 minutes ago, at 14:00 UTC
Forecast valid from 22 at 15 UTC to 22 at 24 UTC
Wind 22 kt from the South
Visibility: 3000 m
Blowing sand
Becoming
from 22 at 18 UTC to 22 at 21 UTC
Visibility: 8000 m

TAF: DAAY 221400Z 2215/2224 18022KT 3000 BLSA BECMG 2218/2221 8000 NSC

Weather observations and forecasts of more than 4000 airports (METAR and TAF reports).

The available stations are represented by yellow and red dots on the map.

Hover mouse over dot to see the name of the station.

Then click to see weather observations and forecasts.

To change the map : click on the green buttons with a black cross to zoom in, on the green button with a dash to zoom out, or on the green arrows for adjacent maps.


METAR-TAF: